< < Back
Terminal Aerodrome Forecast


Current Version              Previous Versions:   1  2  3  4  5  6  7  8  9  

Terminal Aerodrome Forecast

577
FTUS42 KGSP 220500
TAFHKY
TAF
KHKY 220535Z 2206/2306 25003KT P6SM SCT230
     FM221600 27007KT P6SM BKN080
     FM221700 27007KT P6SM OVC070 PROB30 2217/2218 4SM TSRA OVC070CB
     FM221900 27009KT P6SM -SHRA VCTS BKN080CB
     FM222200 27008KT P6SM BKN180
     FM230000 30007KT P6SM BKN220=

Latest METAR

871
SAUS70 KWBC 230700 RRH
MTRHKY
METAR KHKY 230653Z AUTO 00000KT 10SM CLR 15/11 A2977 RMK AO2 SLP062
T01500106


USA.gov is the U.S. government's official web portal to all federal, state and local government web resources and services.